sensor_id;sensor_type;location;lat;lon;timestamp;P1;durP1;ratioP1;P2;durP2;ratioP2
5805;SDS011;2929;50.810;8.342;2023-07-31T00:00:15;6.17;;;2.83;;
5805;SDS011;2929;50.810;8.342;2023-07-31T00:02:43;6.17;;;2.67;;
5805;SDS011;2929;50.810;8.342;2023-07-31T00:05:10;8.70;;;2.83;;
5805;SDS011;2929;50.810;8.342;2023-07-31T00:07:37;8.10;;;2.17;;
5805;SDS011;2929;50.810;8.342;2023-07-31T00:10:05;6.00;;;2.30;;
5805;SDS011;2929;50.810;8.342;2023-07-31T00:12:32;3.67;;;2.30;;
5805;SDS011;2929;50.810;8.342;2023-07-31T00:15:00;11.90;;;3.70;;
5805;SDS011;2929;50.810;8.342;2023-07-31T00:17:29;8.03;;;3.40;;
5805;SDS011;2929;50.810;8.342;2023-07-31T00:19:56;11.00;;;2.97;;
5805;SDS011;2929;50.810;8.342;2023-07-31T00:22:23;10.10;;;2.90;;
5805;SDS011;2929;50.810;8.342;2023-07-31T00:24:50;11.93;;;2.83;;
5805;SDS011;2929;50.810;8.342;2023-07-31T00:27:18;7.17;;;3.57;;
5805;SDS011;2929;50.810;8.342;2023-07-31T00:29:45;4.10;;;2.50;;
5805;SDS011;2929;50.810;8.342;2023-07-31T00:32:12;15.10;;;3.40;;
5805;SDS011;2929;50.810;8.342;2023-07-31T00:34:41;8.20;;;3.00;;
5805;SDS011;2929;50.810;8.342;2023-07-31T00:37:08;7.37;;;2.50;;
5805;SDS011;2929;50.810;8.342;2023-07-31T00:39:35;5.83;;;2.80;;
5805;SDS011;2929;50.810;8.342;2023-07-31T00:42:03;6.37;;;2.83;;
5805;SDS011;2929;50.810;8.342;2023-07-31T00:44:31;7.30;;;2.93;;
5805;SDS011;2929;50.810;8.342;2023-07-31T00:46:59;10.13;;;2.73;;
5805;SDS011;2929;50.810;8.342;2023-07-31T00:49:26;7.67;;;2.93;;
5805;SDS011;2929;50.810;8.342;2023-07-31T00:51:56;13.70;;;2.87;;
5805;SDS011;2929;50.810;8.342;2023-07-31T00:54:24;9.43;;;3.13;;
5805;SDS011;2929;50.810;8.342;2023-07-31T00:56:51;5.30;;;3.20;;
5805;SDS011;2929;50.810;8.342;2023-07-31T00:59:21;5.17;;;3.03;;
5805;SDS011;2929;50.810;8.342;2023-07-31T01:01:48;10.30;;;2.60;;
5805;SDS011;2929;50.810;8.342;2023-07-31T01:04:16;7.60;;;2.90;;
5805;SDS011;2929;50.810;8.342;2023-07-31T01:06:44;5.20;;;3.30;;
5805;SDS011;2929;50.810;8.342;2023-07-31T01:09:16;8.20;;;2.60;;
5805;SDS011;2929;50.810;8.342;2023-07-31T01:11:48;6.40;;;2.67;;
5805;SDS011;2929;50.810;8.342;2023-07-31T01:14:18;7.90;;;3.13;;
5805;SDS011;2929;50.810;8.342;2023-07-31T01:16:46;12.20;;;3.40;;
5805;SDS011;2929;50.810;8.342;2023-07-31T01:19:13;12.10;;;3.10;;
5805;SDS011;2929;50.810;8.342;2023-07-31T01:21:47;9.30;;;3.13;;
5805;SDS011;2929;50.810;8.342;2023-07-31T01:24:24;7.70;;;3.23;;
5805;SDS011;2929;50.810;8.342;2023-07-31T01:26:57;13.03;;;3.10;;
5805;SDS011;2929;50.810;8.342;2023-07-31T01:29:27;7.77;;;3.13;;
5805;SDS011;2929;50.810;8.342;2023-07-31T01:31:56;5.43;;;2.67;;
5805;SDS011;2929;50.810;8.342;2023-07-31T01:34:24;8.27;;;2.80;;
5805;SDS011;2929;50.810;8.342;2023-07-31T01:36:52;6.97;;;3.07;;
5805;SDS011;2929;50.810;8.342;2023-07-31T01:39:19;10.70;;;3.80;;
5805;SDS011;2929;50.810;8.342;2023-07-31T01:41:47;7.37;;;2.70;;
5805;SDS011;2929;50.810;8.342;2023-07-31T01:44:15;8.27;;;3.07;;
5805;SDS011;2929;50.810;8.342;2023-07-31T01:46:43;8.60;;;3.20;;
5805;SDS011;2929;50.810;8.342;2023-07-31T01:49:10;7.53;;;3.00;;
5805;SDS011;2929;50.810;8.342;2023-07-31T01:51:37;7.50;;;3.10;;
5805;SDS011;2929;50.810;8.342;2023-07-31T01:54:06;8.30;;;3.00;;
5805;SDS011;2929;50.810;8.342;2023-07-31T01:56:33;6.50;;;2.83;;
5805;SDS011;2929;50.810;8.342;2023-07-31T01:59:01;6.00;;;2.40;;
5805;SDS011;2929;50.810;8.342;2023-07-31T02:01:29;10.83;;;3.23;;
5805;SDS011;2929;50.810;8.342;2023-07-31T02:03:57;5.07;;;2.93;;
5805;SDS011;2929;50.810;8.342;2023-07-31T02:06:25;7.93;;;3.50;;
5805;SDS011;2929;50.810;8.342;2023-07-31T02:08:52;7.03;;;3.10;;
5805;SDS011;2929;50.810;8.342;2023-07-31T02:11:19;5.20;;;3.17;;
5805;SDS011;2929;50.810;8.342;2023-07-31T02:13:48;5.90;;;2.80;;
5805;SDS011;2929;50.810;8.342;2023-07-31T02:16:16;4.60;;;2.70;;
5805;SDS011;2929;50.810;8.342;2023-07-31T02:18:44;3.20;;;2.77;;
5805;SDS011;2929;50.810;8.342;2023-07-31T02:21:11;6.80;;;2.50;;
5805;SDS011;2929;50.810;8.342;2023-07-31T02:23:39;3.30;;;2.30;;
5805;SDS011;2929;50.810;8.342;2023-07-31T02:26:06;4.87;;;2.73;;
5805;SDS011;2929;50.810;8.342;2023-07-31T02:28:33;6.07;;;3.17;;
5805;SDS011;2929;50.810;8.342;2023-07-31T02:31:00;4.17;;;2.87;;
5805;SDS011;2929;50.810;8.342;2023-07-31T02:33:28;4.70;;;2.67;;
5805;SDS011;2929;50.810;8.342;2023-07-31T02:35:56;7.53;;;2.90;;
5805;SDS011;2929;50.810;8.342;2023-07-31T02:38:24;7.60;;;3.03;;
5805;SDS011;2929;50.810;8.342;2023-07-31T02:40:51;7.10;;;3.47;;
5805;SDS011;2929;50.810;8.342;2023-07-31T02:43:19;9.17;;;3.00;;
5805;SDS011;2929;50.810;8.342;2023-07-31T02:45:49;5.30;;;3.00;;
5805;SDS011;2929;50.810;8.342;2023-07-31T02:48:17;5.57;;;2.63;;
5805;SDS011;2929;50.810;8.342;2023-07-31T02:50:47;4.30;;;2.63;;
5805;SDS011;2929;50.810;8.342;2023-07-31T02:53:15;5.43;;;2.70;;
5805;SDS011;2929;50.810;8.342;2023-07-31T02:55:43;8.17;;;2.80;;
5805;SDS011;2929;50.810;8.342;2023-07-31T02:58:10;5.03;;;2.40;;
5805;SDS011;2929;50.810;8.342;2023-07-31T03:00:41;5.73;;;2.53;;
5805;SDS011;2929;50.810;8.342;2023-07-31T03:03:09;5.43;;;2.70;;
5805;SDS011;2929;50.810;8.342;2023-07-31T03:05:36;4.53;;;2.90;;
5805;SDS011;2929;50.810;8.342;2023-07-31T03:08:03;3.47;;;2.43;;
5805;SDS011;2929;50.810;8.342;2023-07-31T03:10:32;1.90;;;1.70;;
5805;SDS011;2929;50.810;8.342;2023-07-31T03:12:59;1.93;;;1.67;;
5805;SDS011;2929;50.810;8.342;2023-07-31T03:15:26;5.10;;;2.17;;
5805;SDS011;2929;50.810;8.342;2023-07-31T03:17:54;5.13;;;1.80;;
5805;SDS011;2929;50.810;8.342;2023-07-31T03:20:21;2.40;;;1.80;;
5805;SDS011;2929;50.810;8.342;2023-07-31T03:22:48;3.20;;;2.60;;
5805;SDS011;2929;50.810;8.342;2023-07-31T03:25:15;4.43;;;2.40;;
5805;SDS011;2929;50.810;8.342;2023-07-31T03:27:44;4.40;;;2.23;;
5805;SDS011;2929;50.810;8.342;2023-07-31T03:30:11;5.70;;;2.50;;
5805;SDS011;2929;50.810;8.342;2023-07-31T03:32:39;2.30;;;2.10;;
5805;SDS011;2929;50.810;8.342;2023-07-31T03:35:06;2.97;;;1.93;;
5805;SDS011;2929;50.810;8.342;2023-07-31T03:37:33;6.77;;;2.90;;
5805;SDS011;2929;50.810;8.342;2023-07-31T03:40:01;8.90;;;4.00;;
5805;SDS011;2929;50.810;8.342;2023-07-31T03:42:30;6.30;;;2.90;;
5805;SDS011;2929;50.810;8.342;2023-07-31T03:44:58;6.40;;;3.10;;
5805;SDS011;2929;50.810;8.342;2023-07-31T03:47:26;6.40;;;2.70;;
5805;SDS011;2929;50.810;8.342;2023-07-31T03:49:53;9.47;;;3.20;;
5805;SDS011;2929;50.810;8.342;2023-07-31T03:52:20;7.83;;;3.40;;
5805;SDS011;2929;50.810;8.342;2023-07-31T03:54:48;10.30;;;3.50;;
5805;SDS011;2929;50.810;8.342;2023-07-31T03:57:15;4.60;;;2.57;;
5805;SDS011;2929;50.810;8.342;2023-07-31T03:59:42;4.10;;;2.90;;
5805;SDS011;2929;50.810;8.342;2023-07-31T04:02:11;6.33;;;3.00;;
5805;SDS011;2929;50.810;8.342;2023-07-31T04:04:39;8.77;;;3.27;;
5805;SDS011;2929;50.810;8.342;2023-07-31T04:07:06;6.77;;;3.60;;
5805;SDS011;2929;50.810;8.342;2023-07-31T04:09:34;7.17;;;3.10;;
5805;SDS011;2929;50.810;8.342;2023-07-31T04:12:01;5.23;;;3.40;;
5805;SDS011;2929;50.810;8.342;2023-07-31T04:14:28;10.10;;;3.33;;
5805;SDS011;2929;50.810;8.342;2023-07-31T04:16:55;9.20;;;3.30;;
5805;SDS011;2929;50.810;8.342;2023-07-31T04:19:24;14.20;;;3.70;;
5805;SDS011;2929;50.810;8.342;2023-07-31T04:21:51;8.47;;;3.50;;
5805;SDS011;2929;50.810;8.342;2023-07-31T04:24:19;8.23;;;3.67;;
5805;SDS011;2929;50.810;8.342;2023-07-31T04:26:49;9.60;;;4.23;;
5805;SDS011;2929;50.810;8.342;2023-07-31T04:29:16;5.27;;;3.27;;
5805;SDS011;2929;50.810;8.342;2023-07-31T04:31:44;10.70;;;4.27;;
5805;SDS011;2929;50.810;8.342;2023-07-31T04:34:11;5.00;;;3.53;;
5805;SDS011;2929;50.810;8.342;2023-07-31T04:36:40;7.20;;;3.50;;
5805;SDS011;2929;50.810;8.342;2023-07-31T04:39:07;5.97;;;2.97;;
5805;SDS011;2929;50.810;8.342;2023-07-31T04:41:34;12.43;;;3.40;;
5805;SDS011;2929;50.810;8.342;2023-07-31T04:44:01;5.80;;;3.77;;
5805;SDS011;2929;50.810;8.342;2023-07-31T04:46:29;6.17;;;3.23;;
5805;SDS011;2929;50.810;8.342;2023-07-31T04:48:57;8.20;;;3.90;;
5805;SDS011;2929;50.810;8.342;2023-07-31T04:51:24;4.37;;;3.50;;
5805;SDS011;2929;50.810;8.342;2023-07-31T04:53:53;8.13;;;2.90;;
5805;SDS011;2929;50.810;8.342;2023-07-31T04:56:20;5.97;;;3.30;;
5805;SDS011;2929;50.810;8.342;2023-07-31T04:58:47;8.40;;;3.73;;
5805;SDS011;2929;50.810;8.342;2023-07-31T05:01:14;8.33;;;3.50;;
5805;SDS011;2929;50.810;8.342;2023-07-31T05:03:42;5.03;;;2.80;;
5805;SDS011;2929;50.810;8.342;2023-07-31T05:06:09;10.80;;;3.57;;
5805;SDS011;2929;50.810;8.342;2023-07-31T05:08:37;10.30;;;4.00;;
5805;SDS011;2929;50.810;8.342;2023-07-31T05:11:06;6.43;;;3.63;;
5805;SDS011;2929;50.810;8.342;2023-07-31T05:13:33;9.07;;;3.60;;
5805;SDS011;2929;50.810;8.342;2023-07-31T05:16:00;12.27;;;3.43;;
5805;SDS011;2929;50.810;8.342;2023-07-31T05:18:27;8.10;;;4.00;;
5805;SDS011;2929;50.810;8.342;2023-07-31T05:20:55;7.00;;;3.70;;
5805;SDS011;2929;50.810;8.342;2023-07-31T05:23:22;7.80;;;3.37;;
5805;SDS011;2929;50.810;8.342;2023-07-31T05:25:49;6.10;;;3.50;;
5805;SDS011;2929;50.810;8.342;2023-07-31T05:28:18;6.53;;;3.13;;
5805;SDS011;2929;50.810;8.342;2023-07-31T05:30:45;4.50;;;3.33;;
5805;SDS011;2929;50.810;8.342;2023-07-31T05:33:13;6.97;;;3.73;;
5805;SDS011;2929;50.810;8.342;2023-07-31T05:35:41;6.40;;;3.27;;
5805;SDS011;2929;50.810;8.342;2023-07-31T05:38:10;9.77;;;3.33;;
5805;SDS011;2929;50.810;8.342;2023-07-31T05:40:37;7.07;;;3.40;;
5805;SDS011;2929;50.810;8.342;2023-07-31T05:43:04;13.10;;;3.70;;
5805;SDS011;2929;50.810;8.342;2023-07-31T05:45:34;8.97;;;3.30;;
5805;SDS011;2929;50.810;8.342;2023-07-31T05:48:02;5.27;;;2.90;;
5805;SDS011;2929;50.810;8.342;2023-07-31T05:50:29;8.60;;;3.17;;
5805;SDS011;2929;50.810;8.342;2023-07-31T05:52:56;8.63;;;3.40;;
5805;SDS011;2929;50.810;8.342;2023-07-31T05:55:24;7.83;;;3.23;;
5805;SDS011;2929;50.810;8.342;2023-07-31T05:57:52;4.50;;;3.27;;
5805;SDS011;2929;50.810;8.342;2023-07-31T06:00:19;4.67;;;3.50;;
5805;SDS011;2929;50.810;8.342;2023-07-31T06:02:48;5.57;;;3.37;;
5805;SDS011;2929;50.810;8.342;2023-07-31T06:05:16;8.33;;;3.37;;
5805;SDS011;2929;50.810;8.342;2023-07-31T06:07:43;9.40;;;3.40;;
5805;SDS011;2929;50.810;8.342;2023-07-31T06:10:10;7.80;;;3.10;;
5805;SDS011;2929;50.810;8.342;2023-07-31T06:12:38;4.60;;;2.93;;
5805;SDS011;2929;50.810;8.342;2023-07-31T06:15:06;6.73;;;3.47;;
5805;SDS011;2929;50.810;8.342;2023-07-31T06:17:33;5.87;;;3.40;;
5805;SDS011;2929;50.810;8.342;2023-07-31T06:20:02;6.00;;;3.63;;
5805;SDS011;2929;50.810;8.342;2023-07-31T06:22:30;7.40;;;3.50;;
5805;SDS011;2929;50.810;8.342;2023-07-31T06:24:57;7.37;;;3.60;;
5805;SDS011;2929;50.810;8.342;2023-07-31T06:27:24;6.40;;;3.30;;
5805;SDS011;2929;50.810;8.342;2023-07-31T06:29:52;6.10;;;3.43;;
5805;SDS011;2929;50.810;8.342;2023-07-31T06:32:19;6.17;;;3.13;;
5805;SDS011;2929;50.810;8.342;2023-07-31T06:34:46;7.20;;;3.43;;
5805;SDS011;2929;50.810;8.342;2023-07-31T06:37:15;8.73;;;2.93;;
5805;SDS011;2929;50.810;8.342;2023-07-31T06:39:42;5.90;;;3.33;;
5805;SDS011;2929;50.810;8.342;2023-07-31T06:42:10;9.50;;;3.40;;
5805;SDS011;2929;50.810;8.342;2023-07-31T06:44:37;8.00;;;3.83;;
5805;SDS011;2929;50.810;8.342;2023-07-31T06:47:04;6.40;;;3.30;;
5805;SDS011;2929;50.810;8.342;2023-07-31T06:49:32;9.80;;;3.77;;
5805;SDS011;2929;50.810;8.342;2023-07-31T06:51:59;6.40;;;2.97;;
5805;SDS011;2929;50.810;8.342;2023-07-31T06:54:28;6.83;;;3.33;;
5805;SDS011;2929;50.810;8.342;2023-07-31T06:56:55;10.33;;;4.00;;
5805;SDS011;2929;50.810;8.342;2023-07-31T06:59:22;3.20;;;2.90;;
5805;SDS011;2929;50.810;8.342;2023-07-31T07:01:50;8.83;;;3.50;;
5805;SDS011;2929;50.810;8.342;2023-07-31T07:04:17;6.20;;;3.10;;
5805;SDS011;2929;50.810;8.342;2023-07-31T07:06:44;7.20;;;3.50;;
5805;SDS011;2929;50.810;8.342;2023-07-31T07:09:11;6.43;;;3.20;;
5805;SDS011;2929;50.810;8.342;2023-07-31T07:11:40;8.00;;;3.50;;
5805;SDS011;2929;50.810;8.342;2023-07-31T07:14:07;4.80;;;2.77;;
5805;SDS011;2929;50.810;8.342;2023-07-31T07:16:35;6.00;;;3.20;;
5805;SDS011;2929;50.810;8.342;2023-07-31T07:19:02;5.30;;;3.47;;
5805;SDS011;2929;50.810;8.342;2023-07-31T07:21:30;3.90;;;3.43;;
5805;SDS011;2929;50.810;8.342;2023-07-31T07:23:57;10.17;;;3.80;;
5805;SDS011;2929;50.810;8.342;2023-07-31T07:26:24;9.67;;;4.17;;
5805;SDS011;2929;50.810;8.342;2023-07-31T07:28:53;5.00;;;3.00;;
5805;SDS011;2929;50.810;8.342;2023-07-31T07:31:20;5.83;;;3.40;;
5805;SDS011;2929;50.810;8.342;2023-07-31T07:33:48;6.13;;;2.80;;
5805;SDS011;2929;50.810;8.342;2023-07-31T07:36:15;7.33;;;3.00;;
5805;SDS011;2929;50.810;8.342;2023-07-31T07:38:42;6.80;;;3.30;;
5805;SDS011;2929;50.810;8.342;2023-07-31T07:41:09;4.83;;;3.40;;
5805;SDS011;2929;50.810;8.342;2023-07-31T07:43:37;4.53;;;2.80;;
5805;SDS011;2929;50.810;8.342;2023-07-31T07:46:05;4.93;;;3.13;;
5805;SDS011;2929;50.810;8.342;2023-07-31T07:48:33;13.63;;;3.10;;
5805;SDS011;2929;50.810;8.342;2023-07-31T07:51:00;4.87;;;3.10;;
5805;SDS011;2929;50.810;8.342;2023-07-31T07:53:27;9.33;;;3.10;;
5805;SDS011;2929;50.810;8.342;2023-07-31T07:55:54;4.97;;;3.40;;
5805;SDS011;2929;50.810;8.342;2023-07-31T07:58:22;6.53;;;3.63;;
5805;SDS011;2929;50.810;8.342;2023-07-31T08:00:50;6.93;;;3.10;;
5805;SDS011;2929;50.810;8.342;2023-07-31T08:03:18;6.60;;;3.53;;
5805;SDS011;2929;50.810;8.342;2023-07-31T08:05:46;5.00;;;3.20;;
5805;SDS011;2929;50.810;8.342;2023-07-31T08:08:14;6.13;;;3.00;;
5805;SDS011;2929;50.810;8.342;2023-07-31T08:10:42;5.07;;;3.50;;
5805;SDS011;2929;50.810;8.342;2023-07-31T08:13:09;5.80;;;3.00;;
5805;SDS011;2929;50.810;8.342;2023-07-31T08:15:36;4.63;;;3.53;;
5805;SDS011;2929;50.810;8.342;2023-07-31T08:18:04;5.97;;;4.60;;
5805;SDS011;2929;50.810;8.342;2023-07-31T08:20:32;4.90;;;3.20;;
5805;SDS011;2929;50.810;8.342;2023-07-31T08:22:59;8.37;;;3.60;;
5805;SDS011;2929;50.810;8.342;2023-07-31T08:25:27;7.77;;;3.40;;
5805;SDS011;2929;50.810;8.342;2023-07-31T08:27:54;7.00;;;3.63;;
5805;SDS011;2929;50.810;8.342;2023-07-31T08:30:21;6.20;;;3.40;;
5805;SDS011;2929;50.810;8.342;2023-07-31T08:32:49;4.40;;;3.30;;
5805;SDS011;2929;50.810;8.342;2023-07-31T08:35:16;4.23;;;2.80;;
5805;SDS011;2929;50.810;8.342;2023-07-31T08:37:45;12.33;;;4.17;;
5805;SDS011;2929;50.810;8.342;2023-07-31T08:40:12;9.47;;;3.63;;
5805;SDS011;2929;50.810;8.342;2023-07-31T08:42:43;12.10;;;3.60;;
5805;SDS011;2929;50.810;8.342;2023-07-31T08:45:12;7.07;;;3.60;;
5805;SDS011;2929;50.810;8.342;2023-07-31T08:47:41;7.50;;;3.60;;
5805;SDS011;2929;50.810;8.342;2023-07-31T08:50:09;8.07;;;3.70;;
5805;SDS011;2929;50.810;8.342;2023-07-31T08:52:37;10.97;;;4.10;;
5805;SDS011;2929;50.810;8.342;2023-07-31T08:55:06;8.90;;;3.40;;
5805;SDS011;2929;50.810;8.342;2023-07-31T08:57:34;5.90;;;3.60;;
5805;SDS011;2929;50.810;8.342;2023-07-31T09:00:02;6.70;;;3.07;;
5805;SDS011;2929;50.810;8.342;2023-07-31T09:02:31;11.13;;;3.80;;
5805;SDS011;2929;50.810;8.342;2023-07-31T09:05:01;10.50;;;4.37;;
5805;SDS011;2929;50.810;8.342;2023-07-31T09:07:29;6.10;;;2.97;;
5805;SDS011;2929;50.810;8.342;2023-07-31T09:09:56;6.10;;;3.47;;
5805;SDS011;2929;50.810;8.342;2023-07-31T09:12:25;6.47;;;3.30;;
5805;SDS011;2929;50.810;8.342;2023-07-31T09:14:53;6.23;;;3.70;;
5805;SDS011;2929;50.810;8.342;2023-07-31T09:17:28;7.60;;;3.00;;
5805;SDS011;2929;50.810;8.342;2023-07-31T09:19:56;5.30;;;3.10;;
5805;SDS011;2929;50.810;8.342;2023-07-31T09:22:31;5.73;;;3.40;;
5805;SDS011;2929;50.810;8.342;2023-07-31T09:25:03;10.00;;;4.40;;
5805;SDS011;2929;50.810;8.342;2023-07-31T09:27:39;7.87;;;3.40;;
5805;SDS011;2929;50.810;8.342;2023-07-31T09:30:12;6.93;;;3.70;;
5805;SDS011;2929;50.810;8.342;2023-07-31T09:32:39;7.13;;;3.60;;
5805;SDS011;2929;50.810;8.342;2023-07-31T09:35:13;6.90;;;3.43;;
5805;SDS011;2929;50.810;8.342;2023-07-31T09:37:40;8.30;;;3.87;;
5805;SDS011;2929;50.810;8.342;2023-07-31T09:40:08;12.30;;;4.07;;
5805;SDS011;2929;50.810;8.342;2023-07-31T09:42:35;6.50;;;3.53;;
5805;SDS011;2929;50.810;8.342;2023-07-31T09:45:10;5.47;;;3.70;;
5805;SDS011;2929;50.810;8.342;2023-07-31T09:47:38;6.67;;;3.93;;
5805;SDS011;2929;50.810;8.342;2023-07-31T09:50:07;6.93;;;5.07;;
5805;SDS011;2929;50.810;8.342;2023-07-31T09:52:34;7.37;;;3.00;;
5805;SDS011;2929;50.810;8.342;2023-07-31T09:55:06;6.90;;;3.27;;
5805;SDS011;2929;50.810;8.342;2023-07-31T09:57:33;6.30;;;3.40;;
5805;SDS011;2929;50.810;8.342;2023-07-31T10:00:01;5.53;;;3.13;;
5805;SDS011;2929;50.810;8.342;2023-07-31T10:02:38;6.73;;;3.07;;
5805;SDS011;2929;50.810;8.342;2023-07-31T10:05:06;9.80;;;3.50;;
5805;SDS011;2929;50.810;8.342;2023-07-31T10:07:36;6.40;;;3.43;;
5805;SDS011;2929;50.810;8.342;2023-07-31T10:10:04;6.07;;;4.10;;
5805;SDS011;2929;50.810;8.342;2023-07-31T10:12:33;5.17;;;3.00;;
5805;SDS011;2929;50.810;8.342;2023-07-31T10:15:01;6.17;;;3.63;;
5805;SDS011;2929;50.810;8.342;2023-07-31T10:17:29;9.17;;;4.30;;
5805;SDS011;2929;50.810;8.342;2023-07-31T10:19:58;7.63;;;3.33;;
5805;SDS011;2929;50.810;8.342;2023-07-31T10:22:26;5.90;;;3.40;;
5805;SDS011;2929;50.810;8.342;2023-07-31T10:24:54;4.60;;;2.93;;
5805;SDS011;2929;50.810;8.342;2023-07-31T10:27:22;13.03;;;4.07;;
5805;SDS011;2929;50.810;8.342;2023-07-31T10:29:49;6.33;;;3.40;;
5805;SDS011;2929;50.810;8.342;2023-07-31T10:32:16;11.20;;;3.80;;
5805;SDS011;2929;50.810;8.342;2023-07-31T10:34:44;6.20;;;3.60;;
5805;SDS011;2929;50.810;8.342;2023-07-31T10:37:23;9.17;;;4.10;;
5805;SDS011;2929;50.810;8.342;2023-07-31T10:39:57;7.03;;;3.93;;
5805;SDS011;2929;50.810;8.342;2023-07-31T10:42:28;7.60;;;3.80;;
5805;SDS011;2929;50.810;8.342;2023-07-31T10:44:57;5.93;;;3.70;;
5805;SDS011;2929;50.810;8.342;2023-07-31T10:47:24;9.47;;;3.40;;
5805;SDS011;2929;50.810;8.342;2023-07-31T10:49:51;7.30;;;3.20;;
5805;SDS011;2929;50.810;8.342;2023-07-31T10:52:19;7.30;;;4.00;;
5805;SDS011;2929;50.810;8.342;2023-07-31T10:54:50;7.77;;;3.93;;
5805;SDS011;2929;50.810;8.342;2023-07-31T10:57:37;6.83;;;3.10;;
5805;SDS011;2929;50.810;8.342;2023-07-31T11:00:17;8.17;;;3.70;;
5805;SDS011;2929;50.810;8.342;2023-07-31T11:02:48;9.67;;;4.07;;
5805;SDS011;2929;50.810;8.342;2023-07-31T11:05:23;6.00;;;3.13;;
5805;SDS011;2929;50.810;8.342;2023-07-31T11:08:11;6.60;;;3.50;;
5805;SDS011;2929;50.810;8.342;2023-07-31T11:10:39;7.37;;;3.60;;
5805;SDS011;2929;50.810;8.342;2023-07-31T11:13:07;12.63;;;4.10;;
5805;SDS011;2929;50.810;8.342;2023-07-31T11:15:34;8.33;;;3.90;;
5805;SDS011;2929;50.810;8.342;2023-07-31T11:18:01;9.70;;;3.00;;
5805;SDS011;2929;50.810;8.342;2023-07-31T11:20:30;7.20;;;3.60;;
5805;SDS011;2929;50.810;8.342;2023-07-31T11:22:59;11.20;;;3.60;;
5805;SDS011;2929;50.810;8.342;2023-07-31T11:25:26;4.23;;;2.90;;
5805;SDS011;2929;50.810;8.342;2023-07-31T11:27:55;6.40;;;2.93;;
5805;SDS011;2929;50.810;8.342;2023-07-31T11:30:22;10.40;;;3.80;;
5805;SDS011;2929;50.810;8.342;2023-07-31T11:32:49;6.87;;;3.00;;
5805;SDS011;2929;50.810;8.342;2023-07-31T11:35:17;4.27;;;2.97;;
5805;SDS011;2929;50.810;8.342;2023-07-31T11:37:44;11.00;;;3.37;;
5805;SDS011;2929;50.810;8.342;2023-07-31T11:40:12;10.27;;;3.30;;
5805;SDS011;2929;50.810;8.342;2023-07-31T11:42:39;5.37;;;2.83;;
5805;SDS011;2929;50.810;8.342;2023-07-31T11:45:08;5.37;;;3.07;;
5805;SDS011;2929;50.810;8.342;2023-07-31T11:47:36;5.70;;;3.47;;
5805;SDS011;2929;50.810;8.342;2023-07-31T11:50:04;9.10;;;3.17;;
5805;SDS011;2929;50.810;8.342;2023-07-31T11:52:34;5.13;;;3.00;;
5805;SDS011;2929;50.810;8.342;2023-07-31T11:55:03;10.63;;;3.43;;
5805;SDS011;2929;50.810;8.342;2023-07-31T11:57:31;5.63;;;3.30;;
5805;SDS011;2929;50.810;8.342;2023-07-31T11:59:58;8.50;;;3.50;;
5805;SDS011;2929;50.810;8.342;2023-07-31T12:02:27;11.47;;;3.70;;
5805;SDS011;2929;50.810;8.342;2023-07-31T12:04:54;7.10;;;3.60;;
5805;SDS011;2929;50.810;8.342;2023-07-31T12:07:21;5.93;;;2.83;;
5805;SDS011;2929;50.810;8.342;2023-07-31T12:09:51;6.87;;;3.03;;
5805;SDS011;2929;50.810;8.342;2023-07-31T12:12:19;10.00;;;2.80;;
5805;SDS011;2929;50.810;8.342;2023-07-31T12:14:47;12.80;;;3.43;;
5805;SDS011;2929;50.810;8.342;2023-07-31T12:17:15;8.30;;;3.40;;
5805;SDS011;2929;50.810;8.342;2023-07-31T12:19:44;7.20;;;3.13;;
5805;SDS011;2929;50.810;8.342;2023-07-31T12:22:11;6.30;;;3.20;;
5805;SDS011;2929;50.810;8.342;2023-07-31T12:24:39;6.23;;;2.60;;
5805;SDS011;2929;50.810;8.342;2023-07-31T12:27:10;6.67;;;2.90;;
5805;SDS011;2929;50.810;8.342;2023-07-31T12:29:38;7.50;;;2.83;;
5805;SDS011;2929;50.810;8.342;2023-07-31T12:32:18;7.17;;;2.80;;
5805;SDS011;2929;50.810;8.342;2023-07-31T12:34:47;4.83;;;2.57;;
5805;SDS011;2929;50.810;8.342;2023-07-31T12:37:15;4.17;;;2.00;;
5805;SDS011;2929;50.810;8.342;2023-07-31T12:39:42;5.03;;;2.57;;
5805;SDS011;2929;50.810;8.342;2023-07-31T12:42:09;8.83;;;2.37;;
5805;SDS011;2929;50.810;8.342;2023-07-31T12:44:36;4.73;;;2.50;;
5805;SDS011;2929;50.810;8.342;2023-07-31T12:47:03;4.53;;;2.40;;
5805;SDS011;2929;50.810;8.342;2023-07-31T12:49:30;7.13;;;2.30;;
5805;SDS011;2929;50.810;8.342;2023-07-31T12:51:59;8.17;;;2.07;;
5805;SDS011;2929;50.810;8.342;2023-07-31T12:54:26;4.90;;;2.10;;
5805;SDS011;2929;50.810;8.342;2023-07-31T12:56:53;3.90;;;2.00;;
5805;SDS011;2929;50.810;8.342;2023-07-31T12:59:20;4.13;;;2.30;;
5805;SDS011;2929;50.810;8.342;2023-07-31T13:01:47;2.50;;;1.93;;
5805;SDS011;2929;50.810;8.342;2023-07-31T13:04:14;3.77;;;2.30;;
5805;SDS011;2929;50.810;8.342;2023-07-31T13:06:41;6.03;;;1.87;;
5805;SDS011;2929;50.810;8.342;2023-07-31T13:09:09;7.70;;;2.80;;
5805;SDS011;2929;50.810;8.342;2023-07-31T13:11:36;4.67;;;2.30;;
5805;SDS011;2929;50.810;8.342;2023-07-31T13:14:03;3.73;;;2.20;;
5805;SDS011;2929;50.810;8.342;2023-07-31T13:16:30;4.00;;;1.50;;
5805;SDS011;2929;50.810;8.342;2023-07-31T13:18:57;2.80;;;1.80;;
5805;SDS011;2929;50.810;8.342;2023-07-31T13:21:24;3.50;;;1.67;;
5805;SDS011;2929;50.810;8.342;2023-07-31T13:23:51;9.10;;;2.10;;
5805;SDS011;2929;50.810;8.342;2023-07-31T13:26:19;1.97;;;1.77;;
5805;SDS011;2929;50.810;8.342;2023-07-31T13:28:46;5.47;;;1.83;;
5805;SDS011;2929;50.810;8.342;2023-07-31T13:31:13;5.00;;;2.10;;
5805;SDS011;2929;50.810;8.342;2023-07-31T13:33:40;3.73;;;1.80;;
5805;SDS011;2929;50.810;8.342;2023-07-31T13:36:07;5.10;;;1.73;;
5805;SDS011;2929;50.810;8.342;2023-07-31T13:38:35;4.70;;;1.50;;
5805;SDS011;2929;50.810;8.342;2023-07-31T13:41:01;2.60;;;1.73;;
5805;SDS011;2929;50.810;8.342;2023-07-31T13:43:30;5.73;;;2.20;;
5805;SDS011;2929;50.810;8.342;2023-07-31T13:45:57;5.17;;;2.20;;
5805;SDS011;2929;50.810;8.342;2023-07-31T13:48:29;3.53;;;1.60;;
5805;SDS011;2929;50.810;8.342;2023-07-31T13:50:56;3.70;;;2.00;;
5805;SDS011;2929;50.810;8.342;2023-07-31T13:53:23;2.80;;;1.80;;
5805;SDS011;2929;50.810;8.342;2023-07-31T13:55:50;8.53;;;2.40;;
5805;SDS011;2929;50.810;8.342;2023-07-31T13:58:17;2.37;;;2.17;;
5805;SDS011;2929;50.810;8.342;2023-07-31T14:00:45;3.60;;;2.10;;
5805;SDS011;2929;50.810;8.342;2023-07-31T14:03:12;4.90;;;2.80;;
5805;SDS011;2929;50.810;8.342;2023-07-31T14:05:39;3.87;;;2.70;;
5805;SDS011;2929;50.810;8.342;2023-07-31T14:08:06;3.30;;;2.60;;
5805;SDS011;2929;50.810;8.342;2023-07-31T14:10:33;6.70;;;2.50;;
5805;SDS011;2929;50.810;8.342;2023-07-31T14:13:00;3.47;;;2.67;;
5805;SDS011;2929;50.810;8.342;2023-07-31T14:15:28;5.23;;;2.80;;
5805;SDS011;2929;50.810;8.342;2023-07-31T14:17:56;4.00;;;2.80;;
5805;SDS011;2929;50.810;8.342;2023-07-31T14:20:23;4.97;;;2.90;;
5805;SDS011;2929;50.810;8.342;2023-07-31T14:22:50;3.40;;;2.80;;
5805;SDS011;2929;50.810;8.342;2023-07-31T14:25:17;5.07;;;3.00;;
5805;SDS011;2929;50.810;8.342;2023-07-31T14:27:44;3.00;;;2.70;;
5805;SDS011;2929;50.810;8.342;2023-07-31T14:30:11;6.17;;;2.90;;
5805;SDS011;2929;50.810;8.342;2023-07-31T14:32:38;7.93;;;2.97;;
5805;SDS011;2929;50.810;8.342;2023-07-31T14:35:06;4.83;;;2.77;;
5805;SDS011;2929;50.810;8.342;2023-07-31T14:37:37;3.93;;;2.67;;
5805;SDS011;2929;50.810;8.342;2023-07-31T14:40:06;8.10;;;3.90;;
5805;SDS011;2929;50.810;8.342;2023-07-31T14:42:33;6.43;;;3.63;;
5805;SDS011;2929;50.810;8.342;2023-07-31T14:45:00;6.83;;;2.50;;
5805;SDS011;2929;50.810;8.342;2023-07-31T14:47:28;2.00;;;1.77;;
5805;SDS011;2929;50.810;8.342;2023-07-31T14:49:56;3.73;;;2.10;;
5805;SDS011;2929;50.810;8.342;2023-07-31T14:52:24;2.67;;;2.00;;
5805;SDS011;2929;50.810;8.342;2023-07-31T14:54:51;2.80;;;2.13;;
5805;SDS011;2929;50.810;8.342;2023-07-31T14:57:19;6.53;;;2.17;;
5805;SDS011;2929;50.810;8.342;2023-07-31T14:59:46;2.87;;;2.13;;
5805;SDS011;2929;50.810;8.342;2023-07-31T15:02:14;2.77;;;2.00;;
5805;SDS011;2929;50.810;8.342;2023-07-31T15:04:41;4.93;;;2.40;;
5805;SDS011;2929;50.810;8.342;2023-07-31T15:07:08;2.50;;;2.30;;
5805;SDS011;2929;50.810;8.342;2023-07-31T15:09:36;2.67;;;1.83;;
5805;SDS011;2929;50.810;8.342;2023-07-31T15:12:03;2.40;;;2.10;;
5805;SDS011;2929;50.810;8.342;2023-07-31T15:14:31;2.57;;;2.37;;
5805;SDS011;2929;50.810;8.342;2023-07-31T15:16:59;3.50;;;1.80;;
5805;SDS011;2929;50.810;8.342;2023-07-31T15:19:26;3.93;;;1.93;;